createdAt,value
2024-05-09T00:01:02.334Z,19.35
2024-05-09T00:03:29.891Z,19.27
2024-05-09T00:05:57.395Z,17.33
2024-05-09T00:08:24.972Z,17.87
2024-05-09T00:10:52.676Z,19.93
2024-05-09T00:13:20.132Z,20.45
2024-05-09T00:15:47.676Z,16.73
2024-05-09T00:18:15.388Z,19.57
2024-05-09T00:20:42.857Z,22.37
2024-05-09T00:23:10.939Z,27.10
2024-05-09T00:25:38.057Z,21.87
2024-05-09T00:28:05.655Z,17.77
2024-05-09T00:30:35.962Z,20.80
2024-05-09T00:33:01.041Z,18.33
2024-05-09T00:35:28.541Z,18.37
2024-05-09T00:37:55.842Z,17.80
2024-05-09T00:40:31.158Z,18.60
2024-05-09T00:42:50.986Z,17.40
2024-05-09T00:45:18.582Z,19.60
2024-05-09T00:47:47.037Z,19.43
2024-05-09T00:50:19.385Z,21.37
2024-05-09T00:52:42.008Z,17.63
2024-05-09T00:55:09.582Z,17.70
2024-05-09T00:57:37.133Z,18.00
2024-05-09T01:00:07.717Z,18.97
2024-05-09T01:02:34.014Z,25.13
2024-05-09T01:05:01.509Z,18.53
2024-05-09T01:07:28.966Z,17.53
2024-05-09T01:09:56.588Z,19.67
2024-05-09T01:12:24.244Z,21.73
2024-05-09T01:14:51.679Z,16.30
2024-05-09T01:17:19.357Z,18.67
2024-05-09T01:19:46.893Z,18.33
2024-05-09T01:22:14.385Z,16.87
2024-05-09T01:24:41.995Z,16.67
2024-05-09T01:27:09.568Z,18.27
2024-05-09T01:29:37.199Z,18.47
2024-05-09T01:32:04.867Z,17.23
2024-05-09T01:34:32.281Z,18.50
2024-05-09T01:36:59.836Z,16.30
2024-05-09T01:39:27.416Z,16.67
2024-05-09T01:41:54.974Z,16.60
2024-05-09T01:44:22.635Z,18.17
2024-05-09T01:46:50.110Z,18.33
2024-05-09T01:49:17.823Z,16.97
2024-05-09T01:51:45.150Z,16.60
2024-05-09T01:54:12.762Z,18.60
2024-05-09T01:56:40.337Z,17.63
2024-05-09T01:59:07.877Z,17.87
2024-05-09T02:01:55.587Z,16.40
2024-05-09T02:04:03.625Z,17.30
2024-05-09T02:06:30.980Z,18.63
2024-05-09T02:08:58.627Z,19.23
2024-05-09T02:11:26.370Z,19.58
2024-05-09T02:13:53.906Z,20.50
2024-05-09T02:16:21.513Z,19.33
2024-05-09T02:18:49.328Z,16.37
2024-05-09T02:21:16.781Z,18.33
2024-05-09T02:23:44.349Z,16.93
2024-05-09T02:26:11.887Z,17.67
2024-05-09T02:28:39.420Z,23.60
2024-05-09T02:31:07.055Z,21.73
2024-05-09T02:33:34.818Z,22.93
2024-05-09T02:36:02.180Z,22.10
2024-05-09T02:38:30.755Z,22.50
2024-05-09T02:40:58.161Z,23.37
2024-05-09T02:43:25.654Z,22.48
2024-05-09T02:45:53.248Z,22.63
2024-05-09T02:48:21.080Z,20.57
2024-05-09T02:50:48.480Z,21.37
2024-05-09T02:53:16.047Z,18.70
2024-05-09T02:55:43.665Z,21.80
2024-05-09T02:58:11.195Z,23.75
2024-05-09T03:00:41.406Z,20.70
2024-05-09T03:03:10.579Z,20.20
2024-05-09T03:05:36.864Z,20.27
2024-05-09T03:08:04.233Z,21.40
2024-05-09T03:10:36.113Z,26.77
2024-05-09T03:12:59.166Z,40.37
2024-05-09T03:15:26.730Z,38.67
2024-05-09T03:17:54.428Z,42.70
2024-05-09T03:20:27.355Z,47.00
2024-05-09T03:22:49.595Z,26.80
2024-05-09T03:25:17.067Z,27.90
2024-05-09T03:27:44.626Z,32.07
2024-05-09T03:32:40.032Z,48.10
2024-05-09T03:35:07.620Z,82.23
2024-05-09T03:37:35.240Z,63.80
2024-05-09T03:40:02.872Z,65.67
2024-05-09T03:42:30.318Z,71.33
2024-05-09T03:44:57.920Z,41.47
2024-05-09T03:47:25.624Z,39.07
2024-05-09T03:49:53.027Z,27.23
2024-05-09T03:52:20.881Z,24.37
2024-05-09T03:54:48.419Z,23.87
2024-05-09T03:57:15.972Z,27.67
2024-05-09T03:59:43.614Z,32.17
2024-05-09T04:02:11.264Z,28.50
2024-05-09T04:04:38.771Z,20.53
2024-05-09T04:07:06.385Z,19.00
2024-05-09T04:09:34.386Z,18.23
2024-05-09T04:12:02.054Z,18.65
2024-05-09T04:14:29.729Z,22.07
2024-05-09T04:16:57.190Z,35.13
2024-05-09T04:19:24.972Z,60.80
2024-05-09T04:21:52.424Z,69.43
2024-05-09T04:24:19.969Z,83.00
2024-05-09T04:26:47.565Z,27.45
2024-05-09T04:29:15.234Z,22.50
2024-05-09T04:31:42.742Z,30.63
2024-05-09T04:34:10.486Z,17.97
2024-05-09T04:36:41.608Z,23.55
2024-05-09T04:39:06.311Z,18.00
2024-05-09T04:41:33.902Z,40.33
2024-05-09T04:44:01.503Z,18.53
2024-05-09T04:46:29.118Z,18.07
2024-05-09T04:48:56.767Z,21.83
2024-05-09T04:51:24.310Z,23.33
2024-05-09T04:53:51.876Z,19.40
2024-05-09T04:56:19.606Z,21.83
2024-05-09T04:58:47.164Z,43.77
2024-05-09T05:01:14.739Z,43.70
2024-05-09T05:03:42.604Z,45.50
2024-05-09T05:06:09.882Z,77.35
2024-05-09T05:08:37.636Z,65.53
2024-05-09T05:11:05.882Z,95.73
2024-05-09T05:13:33.403Z,80.17
2024-05-09T05:16:01.030Z,100.67
2024-05-09T05:18:28.803Z,81.93
2024-05-09T05:20:56.331Z,95.03
2024-05-09T05:23:23.936Z,57.90
2024-05-09T05:25:51.392Z,45.20
2024-05-09T05:28:18.938Z,52.73
2024-05-09T05:30:46.476Z,47.43
2024-05-09T05:33:14.295Z,38.20
2024-05-09T05:35:41.716Z,38.10
2024-05-09T05:38:09.255Z,43.53
2024-05-09T05:40:40.378Z,27.90
2024-05-09T05:43:06.803Z,44.93
2024-05-09T05:45:34.407Z,34.60
2024-05-09T05:48:02.226Z,36.17
2024-05-09T05:50:35.689Z,27.70
2024-05-09T05:52:57.358Z,25.87
2024-05-09T05:55:24.890Z,23.83
2024-05-09T05:57:52.539Z,26.87
2024-05-09T06:00:29.250Z,24.37
2024-05-09T06:02:47.788Z,25.43
2024-05-09T06:05:15.339Z,28.07
2024-05-09T06:07:42.875Z,21.03
2024-05-09T06:10:17.306Z,31.77
2024-05-09T06:12:37.996Z,26.67
2024-05-09T06:15:05.747Z,32.00
2024-05-09T06:17:33.496Z,23.27
2024-05-09T06:20:00.971Z,24.20
2024-05-09T06:22:28.495Z,23.40
2024-05-09T06:24:56.043Z,23.83
2024-05-09T06:27:23.640Z,24.20
2024-05-09T06:29:51.286Z,23.17
2024-05-09T06:32:18.914Z,23.77
2024-05-09T06:34:46.676Z,21.87
2024-05-09T06:37:14.002Z,24.23
2024-05-09T06:39:41.555Z,26.25
2024-05-09T06:42:09.227Z,24.30
2024-05-09T06:44:36.948Z,35.40
2024-05-09T06:47:04.775Z,33.60
2024-05-09T06:49:32.345Z,32.57
2024-05-09T06:51:59.896Z,33.33
2024-05-09T06:54:28.375Z,35.60
2024-05-09T06:56:56.735Z,35.07
2024-05-09T06:59:24.379Z,33.93
2024-05-09T07:01:51.887Z,32.17
2024-05-09T07:04:19.523Z,32.60
2024-05-09T07:06:47.000Z,34.10
2024-05-09T07:09:14.555Z,34.47
2024-05-09T07:11:42.308Z,35.63
2024-05-09T07:14:09.817Z,36.27
2024-05-09T07:16:37.522Z,36.43
2024-05-09T07:19:05.449Z,34.73
2024-05-09T07:21:32.750Z,37.60
2024-05-09T07:24:00.385Z,35.67
2024-05-09T07:26:28.047Z,36.30
2024-05-09T07:28:55.490Z,33.27
2024-05-09T07:31:23.023Z,30.67
2024-05-09T07:33:50.815Z,36.90
2024-05-09T07:36:18.349Z,34.23
2024-05-09T07:38:46.002Z,34.67
2024-05-09T07:41:13.567Z,33.40
2024-05-09T07:43:42.314Z,33.30
2024-05-09T07:47:13.887Z,31.97
2024-05-09T07:50:34.610Z,32.03
2024-05-09T07:53:42.242Z,29.90
2024-05-09T07:56:02.785Z,28.43
2024-05-09T07:58:30.109Z,26.47
2024-05-09T08:00:57.830Z,26.30
2024-05-09T08:03:25.375Z,26.67
2024-05-09T08:05:53.070Z,27.10
2024-05-09T08:08:20.486Z,24.03
2024-05-09T08:10:48.907Z,25.13
2024-05-09T08:13:17.267Z,21.13
2024-05-09T08:15:44.973Z,24.97
2024-05-09T08:18:12.584Z,21.07
2024-05-09T08:20:41.268Z,22.43
2024-05-09T08:23:08.877Z,21.43
2024-05-09T08:25:36.537Z,23.33
2024-05-09T08:28:04.154Z,21.20
2024-05-09T08:30:36.790Z,22.33
2024-05-09T08:32:59.292Z,24.12
2024-05-09T08:35:26.818Z,20.67
2024-05-09T08:37:54.418Z,21.85
2024-05-09T08:40:30.648Z,22.50
2024-05-09T08:42:49.599Z,18.37
2024-05-09T08:45:17.448Z,21.13
2024-05-09T08:47:47.805Z,21.83
2024-05-09T08:50:28.545Z,15.13
2024-05-09T08:52:42.882Z,15.70
2024-05-09T08:55:10.563Z,14.80
2024-05-09T08:57:38.810Z,13.37
2024-05-09T09:00:10.204Z,13.87
2024-05-09T09:02:34.423Z,13.43
2024-05-09T09:05:07.663Z,11.57
2024-05-09T09:07:35.927Z,14.60
2024-05-09T09:10:05.580Z,11.10
2024-05-09T09:12:31.038Z,9.97
2024-05-09T09:14:58.612Z,10.43
2024-05-09T09:17:27.131Z,9.27
2024-05-09T09:19:55.454Z,8.63
2024-05-09T09:22:22.905Z,8.37
2024-05-09T09:24:50.501Z,6.40
2024-05-09T09:27:17.999Z,8.63
2024-05-09T09:29:45.582Z,4.37
2024-05-09T09:32:13.213Z,6.87
2024-05-09T09:34:40.814Z,7.00
2024-05-09T09:37:08.429Z,6.50
2024-05-09T09:39:35.958Z,5.73
2024-05-09T09:42:03.435Z,10.27
2024-05-09T09:44:30.976Z,5.53
2024-05-09T09:46:58.636Z,8.40
2024-05-09T09:49:28.791Z,5.43
2024-05-09T09:51:56.312Z,8.02
2024-05-09T09:54:23.823Z,4.43
2024-05-09T09:56:51.378Z,4.35
2024-05-09T09:59:18.903Z,5.87
2024-05-09T10:01:46.564Z,11.67
2024-05-09T10:04:14.158Z,5.77
2024-05-09T10:06:41.640Z,3.83
2024-05-09T10:09:09.180Z,3.80
2024-05-09T10:11:45.081Z,5.63
2024-05-09T10:14:04.385Z,4.65
2024-05-09T10:16:32.046Z,5.70
2024-05-09T10:18:59.827Z,5.30
2024-05-09T10:21:27.236Z,3.53
2024-05-09T10:23:57.508Z,5.07
2024-05-09T10:26:31.267Z,6.07
2024-05-09T10:28:58.798Z,2.70
2024-05-09T10:31:30.054Z,5.00
2024-05-09T10:33:57.723Z,4.70
2024-05-09T10:36:27.787Z,3.60
2024-05-09T10:38:55.351Z,4.93
2024-05-09T10:41:23.194Z,5.50
2024-05-09T10:43:51.496Z,2.90
2024-05-09T10:46:19.492Z,5.77
2024-05-09T10:48:46.736Z,4.43
2024-05-09T10:51:14.098Z,8.43
2024-05-09T10:53:42.451Z,4.77
2024-05-09T10:56:09.997Z,3.97
2024-05-09T10:58:37.536Z,5.30
2024-05-09T11:01:07.264Z,4.17
2024-05-09T11:03:33.606Z,3.73
2024-05-09T11:06:00.985Z,1.87
2024-05-09T11:08:28.603Z,3.83
2024-05-09T11:10:56.303Z,4.10
2024-05-09T11:13:29.703Z,5.87
2024-05-09T11:15:57.372Z,4.10
2024-05-09T11:18:26.194Z,6.13
2024-05-09T11:20:53.256Z,2.83
2024-05-09T11:23:23.512Z,3.53
2024-05-09T11:25:56.812Z,3.07
2024-05-09T11:28:25.164Z,4.30
2024-05-09T11:30:52.757Z,3.73
2024-05-09T11:33:20.429Z,2.43
2024-05-09T11:35:47.932Z,4.80
2024-05-09T11:38:15.490Z,4.27
2024-05-09T11:40:43.187Z,2.03
2024-05-09T11:43:10.614Z,1.70
2024-05-09T11:45:38.959Z,5.57
2024-05-09T11:48:06.657Z,5.57
2024-05-09T11:50:35.914Z,3.60
2024-05-09T11:53:01.618Z,3.07
2024-05-09T11:55:29.329Z,4.27
2024-05-09T11:57:56.744Z,4.90
2024-05-09T12:00:33.762Z,4.80
2024-05-09T12:02:51.886Z,4.37
2024-05-09T12:05:19.632Z,5.90
2024-05-09T12:07:46.923Z,2.43
2024-05-09T12:10:19.597Z,3.20
2024-05-09T12:12:42.017Z,4.90
2024-05-09T12:15:09.556Z,3.27
2024-05-09T12:17:37.167Z,3.70
2024-05-09T12:20:09.024Z,4.37
2024-05-09T12:22:33.921Z,3.27
2024-05-09T12:25:01.507Z,2.70
2024-05-09T12:27:29.013Z,3.60
2024-05-09T12:29:57.334Z,4.87
2024-05-09T12:32:25.060Z,2.37
2024-05-09T12:34:52.454Z,2.93
2024-05-09T12:37:20.104Z,3.17
2024-05-09T12:39:47.610Z,2.20
2024-05-09T12:42:26.345Z,2.78
2024-05-09T12:44:42.698Z,5.07
2024-05-09T12:47:11.004Z,3.63
2024-05-09T12:49:38.707Z,3.63
2024-05-09T12:52:06.317Z,2.50
2024-05-09T12:54:33.830Z,3.30
2024-05-09T12:57:01.318Z,2.27
2024-05-09T12:59:29.662Z,3.30
2024-05-09T13:01:59.665Z,5.13
2024-05-09T13:04:24.945Z,3.43
2024-05-09T13:06:52.382Z,4.15
2024-05-09T13:09:19.849Z,3.57
2024-05-09T13:11:47.453Z,2.57
2024-05-09T13:14:14.944Z,3.03
2024-05-09T13:16:42.582Z,2.90
2024-05-09T13:19:10.069Z,3.53
2024-05-09T13:21:37.632Z,5.33
2024-05-09T13:24:05.167Z,4.93
2024-05-09T13:26:32.702Z,5.70
2024-05-09T13:29:00.297Z,5.27
2024-05-09T13:31:27.894Z,5.63
2024-05-09T13:33:58.180Z,5.43
2024-05-09T13:36:26.279Z,3.33
2024-05-09T13:38:54.576Z,2.50
2024-05-09T13:41:22.112Z,3.83
2024-05-09T13:43:49.692Z,2.77
2024-05-09T13:46:17.349Z,4.67
2024-05-09T13:48:44.928Z,5.30
2024-05-09T13:51:12.433Z,4.20
2024-05-09T13:53:40.799Z,3.23
2024-05-09T13:56:08.416Z,3.60
2024-05-09T13:58:35.998Z,5.77
2024-05-09T14:01:03.734Z,3.37
2024-05-09T14:03:31.611Z,4.17
2024-05-09T14:05:59.135Z,4.07
2024-05-09T14:08:28.345Z,5.53
2024-05-09T14:10:56.046Z,4.90
2024-05-09T14:13:23.632Z,5.73
2024-05-09T14:15:51.519Z,3.67
2024-05-09T14:18:19.182Z,3.57
2024-05-09T14:20:46.582Z,3.33
2024-05-09T14:23:14.204Z,4.43
2024-05-09T14:25:43.435Z,2.20
2024-05-09T14:28:09.645Z,3.97
2024-05-09T14:30:38.499Z,2.43
2024-05-09T14:33:05.411Z,7.33
2024-05-09T14:35:32.449Z,2.72
2024-05-09T14:38:00.097Z,4.60
2024-05-09T14:40:37.276Z,2.17
2024-05-09T14:42:55.367Z,5.10
2024-05-09T14:45:23.087Z,2.90
2024-05-09T14:47:50.811Z,4.63
2024-05-09T14:50:27.307Z,2.97
2024-05-09T14:52:45.789Z,2.93
2024-05-09T14:55:13.392Z,4.40
2024-05-09T14:57:40.926Z,4.85
2024-05-09T15:00:17.326Z,2.20
2024-05-09T15:02:36.216Z,4.00
2024-05-09T15:05:04.058Z,3.60
2024-05-09T15:07:32.184Z,3.50
2024-05-09T15:09:59.745Z,2.33
2024-05-09T15:12:27.322Z,2.70
2024-05-09T15:14:55.636Z,3.43
2024-05-09T15:17:23.257Z,3.30
2024-05-09T15:19:51.804Z,6.83
2024-05-09T15:22:19.296Z,3.80
2024-05-09T15:24:46.810Z,3.07
2024-05-09T15:27:14.453Z,2.77
2024-05-09T15:29:42.226Z,7.77
2024-05-09T15:32:09.833Z,2.90
2024-05-09T15:34:37.482Z,2.70
2024-05-09T15:37:04.947Z,1.80
2024-05-09T15:39:32.610Z,4.90
2024-05-09T15:42:00.286Z,3.57
2024-05-09T15:44:28.939Z,3.00
2024-05-09T15:46:56.528Z,5.67
2024-05-09T15:49:25.006Z,4.43
2024-05-09T15:51:52.549Z,4.33
2024-05-09T15:54:21.526Z,2.17
2024-05-09T15:56:48.403Z,3.17
2024-05-09T15:59:16.830Z,2.27
2024-05-09T16:01:44.414Z,4.53
2024-05-09T16:04:12.176Z,3.10
2024-05-09T16:06:39.676Z,2.30
2024-05-09T16:09:07.210Z,4.40
2024-05-09T16:11:34.938Z,2.10
2024-05-09T16:14:02.338Z,4.97
2024-05-09T16:16:29.946Z,5.90
2024-05-09T16:18:57.562Z,3.80
2024-05-09T16:21:25.046Z,2.93
2024-05-09T16:23:52.649Z,3.73
2024-05-09T16:26:20.214Z,2.10
2024-05-09T16:28:47.837Z,2.07
2024-05-09T16:31:15.443Z,2.97
2024-05-09T16:33:43.073Z,3.40
2024-05-09T16:36:10.495Z,7.07
2024-05-09T16:38:38.084Z,3.80
2024-05-09T16:41:05.733Z,2.33
2024-05-09T16:43:34.825Z,3.17
2024-05-09T16:46:02.409Z,2.40
2024-05-09T16:48:30.182Z,2.97
2024-05-09T16:50:58.543Z,4.40
2024-05-09T16:53:26.186Z,3.53
2024-05-09T16:55:53.750Z,2.40
2024-05-09T16:58:21.597Z,2.23
2024-05-09T17:00:49.240Z,4.63
2024-05-09T17:03:17.032Z,3.67
2024-05-09T17:05:44.483Z,3.37
2024-05-09T17:08:12.084Z,5.93
2024-05-09T17:10:39.917Z,4.10
2024-05-09T17:13:08.224Z,3.00
2024-05-09T17:15:35.492Z,4.03
2024-05-09T17:18:02.704Z,6.47
2024-05-09T17:20:34.513Z,1.73
2024-05-09T17:22:58.722Z,3.07
2024-05-09T17:25:26.790Z,2.70
2024-05-09T17:27:55.269Z,3.03
2024-05-09T17:30:29.152Z,3.40
2024-05-09T17:32:50.576Z,2.17
2024-05-09T17:35:18.254Z,6.10
2024-05-09T17:37:45.964Z,3.70
2024-05-09T17:40:16.972Z,3.75
2024-05-09T17:42:41.482Z,6.00
2024-05-09T17:45:09.169Z,2.77
2024-05-09T17:47:37.179Z,4.10
2024-05-09T17:50:07.382Z,2.17
2024-05-09T17:52:32.471Z,2.23
2024-05-09T17:55:00.178Z,4.83
2024-05-09T17:57:27.604Z,3.87
2024-05-09T17:59:55.335Z,4.40
2024-05-09T18:02:23.065Z,2.83
2024-05-09T18:04:50.730Z,2.45
2024-05-09T18:07:18.285Z,4.37
2024-05-09T18:09:45.931Z,2.60
2024-05-09T18:12:13.614Z,3.53
2024-05-09T18:14:41.134Z,2.77
2024-05-09T18:17:09.557Z,3.12
2024-05-09T18:19:38.252Z,2.43
2024-05-09T18:22:06.052Z,5.80
2024-05-09T18:24:33.613Z,5.13
2024-05-09T18:27:01.194Z,5.77
2024-05-09T18:29:28.826Z,3.20
2024-05-09T18:31:56.417Z,4.37
2024-05-09T18:34:24.906Z,3.77
2024-05-09T18:36:52.303Z,4.83
2024-05-09T18:39:19.930Z,2.30
2024-05-09T18:41:47.391Z,4.23
2024-05-09T18:44:14.927Z,3.53
2024-05-09T18:46:43.244Z,6.10
2024-05-09T18:49:10.902Z,4.50
2024-05-09T18:51:38.386Z,4.53
2024-05-09T18:54:05.907Z,7.13
2024-05-09T18:56:33.453Z,4.37
2024-05-09T18:59:00.995Z,5.70
2024-05-09T19:01:28.782Z,2.90
2024-05-09T19:03:56.500Z,3.10
2024-05-09T19:06:24.843Z,3.50
2024-05-09T19:08:51.348Z,3.70
2024-05-09T19:11:18.930Z,2.63
2024-05-09T19:13:46.465Z,4.27
2024-05-09T19:16:14.120Z,4.17
2024-05-09T19:18:41.861Z,6.00
2024-05-09T19:21:09.213Z,4.27
2024-05-09T19:23:38.429Z,2.30
2024-05-09T19:26:04.267Z,3.33
2024-05-09T19:28:31.860Z,3.70
2024-05-09T19:30:59.445Z,5.67
2024-05-09T19:33:26.992Z,3.07
2024-05-09T19:35:54.540Z,4.40
2024-05-09T19:38:22.169Z,4.10
2024-05-09T19:40:49.889Z,2.93
2024-05-09T19:43:18.065Z,3.50
2024-05-09T19:45:45.631Z,7.97
2024-05-09T19:48:13.265Z,7.83
2024-05-09T19:50:43.804Z,3.13
2024-05-09T19:53:08.362Z,5.00
2024-05-09T19:55:35.841Z,6.30
2024-05-09T19:58:05.334Z,3.17
2024-05-09T20:00:35.722Z,5.43
2024-05-09T20:02:58.580Z,19.33
2024-05-09T20:05:28.515Z,20.97
2024-05-09T20:07:54.440Z,13.33
2024-05-09T20:10:26.202Z,8.70
2024-05-09T20:12:49.612Z,3.40
2024-05-09T20:15:17.867Z,4.70
2024-05-09T20:17:45.505Z,5.17
2024-05-09T20:20:23.517Z,5.43
2024-05-09T20:22:40.536Z,4.77
2024-05-09T20:25:08.150Z,2.57
2024-05-09T20:27:35.682Z,4.12
2024-05-09T20:30:07.896Z,4.62
2024-05-09T20:32:30.905Z,5.17
2024-05-09T20:34:58.321Z,3.47
2024-05-09T20:37:25.871Z,11.40
2024-05-09T20:39:53.506Z,5.10
2024-05-09T20:42:21.000Z,4.60
2024-05-09T20:44:48.582Z,3.83
2024-05-09T20:47:16.147Z,4.67
2024-05-09T20:49:43.840Z,5.17
2024-05-09T20:52:11.400Z,5.13
2024-05-09T20:54:38.910Z,6.28
2024-05-09T20:57:06.431Z,5.13
2024-05-09T20:59:34.004Z,3.27
2024-05-09T21:02:01.808Z,2.40
2024-05-09T21:04:29.294Z,4.30
2024-05-09T21:06:56.707Z,3.67
2024-05-09T21:09:24.980Z,4.03
2024-05-09T21:11:52.804Z,3.40
2024-05-09T21:14:20.312Z,4.95
2024-05-09T21:16:48.102Z,4.17
2024-05-09T21:19:16.298Z,4.32
2024-05-09T21:21:43.818Z,9.20
2024-05-09T21:24:11.330Z,6.63
2024-05-09T21:26:38.863Z,4.67
2024-05-09T21:29:06.458Z,4.50
2024-05-09T21:31:34.052Z,4.93
2024-05-09T21:34:01.686Z,4.47
2024-05-09T21:36:29.138Z,4.67
2024-05-09T21:38:56.680Z,8.80
2024-05-09T21:41:24.198Z,4.40
2024-05-09T21:43:52.541Z,3.63
2024-05-09T21:46:20.113Z,4.17
2024-05-09T21:48:47.656Z,7.17
2024-05-09T21:51:15.961Z,6.47
2024-05-09T21:53:43.510Z,5.63
2024-05-09T21:56:11.044Z,3.17
2024-05-09T21:58:38.616Z,6.72
2024-05-09T22:01:06.287Z,7.20
2024-05-09T22:03:33.995Z,3.83
2024-05-09T22:06:01.237Z,5.03
2024-05-09T22:08:29.551Z,5.40
2024-05-09T22:10:57.195Z,6.40
2024-05-09T22:13:24.806Z,3.70
2024-05-09T22:15:52.233Z,3.47
2024-05-09T22:18:20.600Z,3.53
2024-05-09T22:20:48.091Z,5.53
2024-05-09T22:23:15.772Z,4.60
2024-05-09T22:25:43.203Z,5.22
2024-05-09T22:28:10.979Z,4.30
2024-05-09T22:30:39.963Z,5.87
2024-05-09T22:33:06.163Z,7.40
2024-05-09T22:35:33.507Z,3.10
2024-05-09T22:38:01.013Z,5.72
2024-05-09T22:40:38.450Z,8.33
2024-05-09T22:42:57.049Z,4.18
2024-05-09T22:45:24.480Z,3.63
2024-05-09T22:47:52.138Z,5.33
2024-05-09T22:50:26.688Z,5.50
2024-05-09T22:52:47.139Z,5.97
2024-05-09T22:55:14.716Z,6.03
2024-05-09T22:57:42.289Z,6.57
2024-05-09T23:00:12.437Z,6.80
2024-05-09T23:02:37.456Z,6.43
2024-05-09T23:05:05.081Z,5.93
2024-05-09T23:07:32.502Z,8.33
2024-05-09T23:10:00.105Z,6.70
2024-05-09T23:12:27.582Z,7.00
2024-05-09T23:14:55.140Z,5.37
2024-05-09T23:17:23.563Z,5.87
2024-05-09T23:19:51.017Z,6.67
2024-05-09T23:22:18.598Z,7.33
2024-05-09T23:24:46.155Z,6.40
2024-05-09T23:27:14.434Z,6.60
2024-05-09T23:29:41.990Z,4.93
2024-05-09T23:32:09.539Z,8.05
2024-05-09T23:34:37.119Z,5.97
2024-05-09T23:37:04.691Z,4.67
2024-05-09T23:39:32.166Z,6.67
2024-05-09T23:42:00.496Z,8.07
2024-05-09T23:44:28.038Z,9.27
2024-05-09T23:46:55.662Z,8.40
2024-05-09T23:49:23.173Z,6.90
2024-05-09T23:51:50.706Z,5.53
2024-05-09T23:54:18.236Z,6.50
2024-05-09T23:56:46.592Z,5.77
2024-05-09T23:59:14.127Z,4.77
